createdAt,value
2023-04-02T00:00:37.199Z,7.60
2023-04-02T00:03:06.066Z,7.70
2023-04-02T00:05:55.040Z,7.70
2023-04-02T00:08:39.118Z,7.60
2023-04-02T00:11:06.400Z,7.50
2023-04-02T00:13:41.104Z,7.60
2023-04-02T00:16:11.765Z,7.60
2023-04-02T00:18:42.903Z,7.50
2023-04-02T00:21:24.920Z,7.50
2023-04-02T00:23:56.950Z,7.60
2023-04-02T00:26:32.271Z,7.50
2023-04-02T00:29:00.670Z,7.70
2023-04-02T00:31:28.090Z,7.60
2023-04-02T00:33:56.092Z,7.60
2023-04-02T00:36:23.530Z,7.60
2023-04-02T00:38:50.922Z,7.60
2023-04-02T00:41:24.109Z,7.50
2023-04-02T00:43:51.567Z,7.50
2023-04-02T00:46:24.472Z,7.70
2023-04-02T00:49:09.964Z,7.70
2023-04-02T00:51:54.134Z,7.60
2023-04-02T00:54:22.083Z,7.70
2023-04-02T00:56:51.112Z,7.80
2023-04-02T00:59:27.397Z,7.70
2023-04-02T01:02:18.717Z,7.60
2023-04-02T01:04:53.869Z,7.60
2023-04-02T01:07:44.101Z,7.60
2023-04-02T01:10:29.181Z,7.60
2023-04-02T01:13:23.651Z,7.70
2023-04-02T01:16:29.615Z,7.60
2023-04-02T01:19:02.047Z,7.60
2023-04-02T01:21:55.573Z,7.60
2023-04-02T01:24:22.854Z,7.70
2023-04-02T01:26:58.103Z,7.80
2023-04-02T01:29:29.375Z,7.70
2023-04-02T01:32:01.819Z,7.80
2023-04-02T01:34:28.921Z,7.70
2023-04-02T01:37:17.112Z,7.80
2023-04-02T01:39:50.029Z,7.70
2023-04-02T01:42:38.755Z,7.60
2023-04-02T01:45:09.864Z,7.60
2023-04-02T01:47:37.962Z,7.70
2023-04-02T01:50:33.936Z,7.50
2023-04-02T01:53:02.734Z,7.60
2023-04-02T01:55:31.634Z,7.70
2023-04-02T01:57:58.957Z,7.70
2023-04-02T02:00:26.232Z,7.70
2023-04-02T02:02:53.443Z,7.80
2023-04-02T02:05:23.255Z,7.70
2023-04-02T02:07:51.234Z,7.80
2023-04-02T02:10:24.297Z,7.80
2023-04-02T02:12:51.571Z,7.80
2023-04-02T02:15:23.097Z,7.60
2023-04-02T02:17:50.514Z,7.60
2023-04-02T02:20:17.860Z,7.40
2023-04-02T02:22:48.931Z,7.60
2023-04-02T02:25:21.608Z,7.70
2023-04-02T02:28:04.937Z,7.70
2023-04-02T02:30:35.409Z,7.70
2023-04-02T02:33:15.413Z,7.70
2023-04-02T02:36:06.444Z,7.70
2023-04-02T02:38:49.142Z,7.70
2023-04-02T02:41:21.829Z,7.70
2023-04-02T02:44:02.854Z,7.70
2023-04-02T02:46:30.226Z,7.80
2023-04-02T02:48:57.467Z,7.80
2023-04-02T02:51:28.904Z,7.50
2023-04-02T02:53:59.992Z,7.70
2023-04-02T02:56:27.219Z,7.60
2023-04-02T02:58:54.533Z,7.70
2023-04-02T03:01:21.926Z,7.70
2023-04-02T03:03:49.606Z,7.70
2023-04-02T03:06:17.412Z,7.50
2023-04-02T03:08:47.972Z,7.50
2023-04-02T03:11:33.080Z,7.50
2023-04-02T03:14:27.320Z,7.60
2023-04-02T03:17:00.571Z,7.70
2023-04-02T03:19:32.011Z,7.70
2023-04-02T03:22:37.457Z,7.70
2023-04-02T03:25:09.993Z,7.70
2023-04-02T03:27:41.951Z,7.60
2023-04-02T03:30:39.193Z,7.70
2023-04-02T03:33:18.043Z,7.70
2023-04-02T03:36:05.434Z,7.70
2023-04-02T03:38:37.299Z,7.60
2023-04-02T03:41:19.412Z,7.60
2023-04-02T03:43:47.871Z,7.60
2023-04-02T03:46:31.897Z,7.60
2023-04-02T03:49:08.220Z,7.60
2023-04-02T03:51:57.827Z,7.70
2023-04-02T03:54:25.086Z,7.70
2023-04-02T03:56:52.544Z,7.70
2023-04-02T03:59:37.419Z,7.60
2023-04-02T04:02:35.161Z,7.60
2023-04-02T04:05:03.329Z,7.50
2023-04-02T04:07:33.748Z,7.60
2023-04-02T04:10:00.912Z,7.60
2023-04-02T04:12:32.120Z,7.60
2023-04-02T04:15:09.779Z,7.70
2023-04-02T04:17:51.691Z,7.50
2023-04-02T04:20:35.575Z,7.50
2023-04-02T04:23:32.422Z,7.60
2023-04-02T04:26:05.677Z,7.70
2023-04-02T04:28:58.562Z,7.60
2023-04-02T04:31:55.943Z,7.40
2023-04-02T04:34:56.346Z,7.40
2023-04-02T04:37:34.576Z,7.60
2023-04-02T04:40:24.521Z,7.60
2023-04-02T04:42:53.423Z,7.50
2023-04-02T04:45:30.842Z,7.50
2023-04-02T04:48:00.177Z,7.50
2023-04-02T04:50:52.576Z,7.40
2023-04-02T04:53:25.273Z,7.40
2023-04-02T04:56:16.430Z,7.50
2023-04-02T04:58:52.775Z,7.50
2023-04-02T05:01:24.908Z,7.70
2023-04-02T05:04:09.579Z,7.70
2023-04-02T05:06:54.224Z,7.70
2023-04-02T05:09:30.118Z,7.70
2023-04-02T05:12:26.554Z,7.50
2023-04-02T05:15:16.557Z,7.50
2023-04-02T05:18:09.654Z,7.50
2023-04-02T05:20:47.675Z,7.70
2023-04-02T05:23:17.736Z,7.60
2023-04-02T05:26:37.500Z,7.60
2023-04-02T05:29:12.455Z,7.60
2023-04-02T05:31:57.617Z,7.50
2023-04-02T05:34:27.606Z,7.50
2023-04-02T05:36:55.828Z,7.50
2023-04-02T05:39:23.968Z,7.50
2023-04-02T05:42:08.449Z,7.60
2023-04-02T05:44:41.852Z,7.70
2023-04-02T05:47:18.666Z,7.50
2023-04-02T05:50:08.829Z,7.60
2023-04-02T05:53:02.259Z,7.60
2023-04-02T05:55:51.402Z,7.60
2023-04-02T05:58:35.358Z,7.60
2023-04-02T06:01:17.721Z,7.70
2023-04-02T06:04:01.184Z,7.70
2023-04-02T06:06:41.915Z,7.70
2023-04-02T06:09:27.861Z,7.80
2023-04-02T06:12:19.659Z,7.80
2023-04-02T06:14:46.951Z,7.70
2023-04-02T06:17:18.081Z,7.80
2023-04-02T06:19:46.174Z,7.80
2023-04-02T06:22:21.434Z,7.80
2023-04-02T06:24:51.490Z,7.80
2023-04-02T06:27:20.308Z,7.80
2023-04-02T06:29:47.452Z,7.90
2023-04-02T06:32:14.655Z,7.70
2023-04-02T06:34:42.566Z,7.70
2023-04-02T06:37:36.706Z,7.90
2023-04-02T06:40:04.508Z,7.70
2023-04-02T06:42:34.278Z,7.80
2023-04-02T06:45:01.698Z,7.80
2023-04-02T06:47:39.782Z,7.80
2023-04-02T06:50:27.115Z,8.00
2023-04-02T06:52:58.834Z,7.80
2023-04-02T06:55:44.863Z,7.70
2023-04-02T06:58:12.011Z,7.80
2023-04-02T07:00:43.944Z,7.90
2023-04-02T07:03:15.171Z,7.90
2023-04-02T07:05:43.061Z,7.80
2023-04-02T07:08:10.550Z,7.90
2023-04-02T07:10:37.801Z,7.90
2023-04-02T07:13:06.071Z,8.00
2023-04-02T07:15:33.500Z,8.10
2023-04-02T07:18:01.099Z,7.90
2023-04-02T07:20:37.681Z,7.90
2023-04-02T07:23:04.900Z,8.00
2023-04-02T07:25:32.120Z,8.10
2023-04-02T07:27:59.242Z,8.20
2023-04-02T07:30:26.499Z,8.20
2023-04-02T07:32:53.691Z,8.20
2023-04-02T07:35:20.842Z,8.20
2023-04-02T07:37:48.071Z,8.10
2023-04-02T07:40:20.902Z,8.20
2023-04-02T07:42:48.109Z,8.20
2023-04-02T07:45:15.477Z,8.10
2023-04-02T07:47:42.893Z,8.10
2023-04-02T07:50:10.884Z,8.10
2023-04-02T07:52:44.183Z,8.10
2023-04-02T07:55:12.933Z,8.10
2023-04-02T07:57:44.267Z,8.20
2023-04-02T08:00:13.604Z,8.30
2023-04-02T08:02:40.847Z,8.30
2023-04-02T08:05:09.046Z,8.30
2023-04-02T08:07:36.542Z,8.40
2023-04-02T08:10:04.380Z,8.50
2023-04-02T08:12:31.685Z,8.30
2023-04-02T08:14:59.118Z,8.30
2023-04-02T08:17:31.335Z,8.40
2023-04-02T08:20:01.308Z,8.50
2023-04-02T08:22:31.697Z,8.40
2023-04-02T08:24:58.933Z,8.40
2023-04-02T08:27:26.561Z,8.30
2023-04-02T08:29:53.709Z,8.30
2023-04-02T08:32:22.163Z,8.50
2023-04-02T08:34:49.375Z,8.40
2023-04-02T08:37:17.275Z,8.50
2023-04-02T08:39:44.429Z,8.60
2023-04-02T08:42:33.212Z,8.50
2023-04-02T08:45:37.919Z,8.60
2023-04-02T08:48:06.680Z,8.50
2023-04-02T08:50:39.092Z,8.30
2023-04-02T08:53:10.186Z,8.40
2023-04-02T08:56:05.833Z,8.50
2023-04-02T08:58:44.425Z,8.60
2023-04-02T09:01:33.047Z,8.60
2023-04-02T09:04:00.797Z,8.60
2023-04-02T09:06:30.841Z,8.80
2023-04-02T09:08:58.968Z,8.90
2023-04-02T09:11:36.351Z,9.00
2023-04-02T09:14:06.315Z,8.90
2023-04-02T09:16:50.633Z,9.00
2023-04-02T09:19:35.954Z,9.00
2023-04-02T09:22:09.719Z,9.00
2023-04-02T09:24:37.899Z,8.90
2023-04-02T09:27:09.838Z,9.00
2023-04-02T09:29:44.704Z,8.90
2023-04-02T09:32:33.725Z,9.00
2023-04-02T09:35:24.566Z,9.10
2023-04-02T09:38:20.788Z,9.10
2023-04-02T09:40:53.776Z,9.20
2023-04-02T09:43:22.628Z,9.20
2023-04-02T09:46:17.706Z,9.30
2023-04-02T09:49:06.241Z,9.20
2023-04-02T09:51:34.821Z,9.20
2023-04-02T09:54:04.854Z,9.20
2023-04-02T09:56:39.430Z,9.20
2023-04-02T09:59:15.329Z,9.20
2023-04-02T10:01:43.261Z,9.40
2023-04-02T10:04:29.206Z,9.30
2023-04-02T10:06:58.186Z,10.10
2023-04-02T10:09:35.690Z,9.40
2023-04-02T10:12:04.090Z,9.30
2023-04-02T10:14:39.202Z,9.20
2023-04-02T10:17:27.902Z,9.30
2023-04-02T10:19:59.039Z,9.30
2023-04-02T10:22:28.274Z,9.40
2023-04-02T10:24:55.547Z,9.50
2023-04-02T10:27:34.069Z,9.40
2023-04-02T10:30:19.873Z,9.30
2023-04-02T10:32:52.467Z,9.40
2023-04-02T10:35:35.191Z,9.40
2023-04-02T10:38:21.033Z,9.40
2023-04-02T10:40:48.514Z,9.40
2023-04-02T10:43:27.509Z,9.50
2023-04-02T10:46:22.429Z,9.50
2023-04-02T10:49:10.600Z,9.70
2023-04-02T10:51:37.804Z,9.60
2023-04-02T10:54:28.233Z,9.60
2023-04-02T10:57:04.005Z,9.50
2023-04-02T10:59:32.691Z,9.50
2023-04-02T11:01:59.997Z,9.50
2023-04-02T11:04:33.041Z,9.70
2023-04-02T11:07:17.764Z,9.60
2023-04-02T11:09:46.965Z,9.60
2023-04-02T11:12:42.225Z,9.50
2023-04-02T11:15:27.756Z,9.60
2023-04-02T11:17:55.119Z,9.70
2023-04-02T11:20:50.237Z,9.70
2023-04-02T11:23:20.569Z,9.50
2023-04-02T11:25:48.211Z,9.60
2023-04-02T11:28:29.155Z,9.60
2023-04-02T11:30:56.752Z,9.40
2023-04-02T11:33:38.260Z,9.50
2023-04-02T11:36:44.625Z,9.50
2023-04-02T11:39:17.319Z,9.50
2023-04-02T11:42:01.546Z,9.50
2023-04-02T11:44:28.795Z,9.60
2023-04-02T11:47:23.039Z,9.40
2023-04-02T11:49:59.022Z,9.10
2023-04-02T11:52:36.313Z,9.20
2023-04-02T11:55:24.542Z,9.20
2023-04-02T11:58:20.858Z,9.10
2023-04-02T12:01:08.143Z,9.20
2023-04-02T12:03:47.885Z,8.90
2023-04-02T12:06:40.188Z,8.70
2023-04-02T12:09:20.810Z,8.70
2023-04-02T12:11:48.544Z,8.60
2023-04-02T12:14:46.042Z,8.50
2023-04-02T12:17:30.693Z,8.60
2023-04-02T12:19:59.899Z,8.30
2023-04-02T12:22:31.548Z,8.20
2023-04-02T12:25:24.686Z,8.30
2023-04-02T12:28:14.534Z,8.20
2023-04-02T12:30:41.987Z,8.10
2023-04-02T12:33:37.641Z,8.20
2023-04-02T12:36:25.099Z,8.30
2023-04-02T12:38:56.891Z,8.20
2023-04-02T12:41:27.269Z,7.90
2023-04-02T12:44:02.093Z,7.80
2023-04-02T12:46:30.259Z,7.70
2023-04-02T12:49:09.098Z,7.70
2023-04-02T12:51:36.493Z,7.50
2023-04-02T12:54:03.766Z,7.70
2023-04-02T12:56:31.128Z,7.80
2023-04-02T12:58:59.602Z,7.70
2023-04-02T13:01:28.495Z,7.60
2023-04-02T13:04:09.511Z,7.40
2023-04-02T13:06:37.059Z,7.60
2023-04-02T13:09:06.260Z,7.50
2023-04-02T13:11:37.240Z,7.30
2023-04-02T13:14:05.886Z,7.20
2023-04-02T13:16:37.737Z,7.10
2023-04-02T13:19:18.089Z,7.10
2023-04-02T13:21:45.505Z,7.30
2023-04-02T13:24:20.646Z,7.30
2023-04-02T13:26:49.883Z,7.40
2023-04-02T13:29:32.765Z,7.30
2023-04-02T13:32:12.568Z,7.10
2023-04-02T13:34:39.888Z,7.40
2023-04-02T13:37:07.085Z,7.20
2023-04-02T13:39:34.432Z,7.20
2023-04-02T13:42:03.027Z,7.40
2023-04-02T13:44:31.436Z,7.40
2023-04-02T13:46:58.845Z,7.40
2023-04-02T13:49:26.378Z,7.20
2023-04-02T13:52:00.697Z,7.20
2023-04-02T13:54:31.443Z,7.00
2023-04-02T13:56:58.681Z,6.70
2023-04-02T13:59:27.238Z,6.60
2023-04-02T14:02:01.077Z,6.30
2023-04-02T14:04:51.024Z,6.30
2023-04-02T14:07:50.302Z,6.40
2023-04-02T14:10:31.217Z,6.40
2023-04-02T14:13:11.841Z,6.30
2023-04-02T14:15:48.921Z,6.10
2023-04-02T14:18:39.608Z,6.10
2023-04-02T14:21:23.913Z,6.10
2023-04-02T14:23:51.394Z,6.10
2023-04-02T14:26:39.829Z,6.00
2023-04-02T14:29:29.181Z,6.00
2023-04-02T14:32:21.015Z,6.00
2023-04-02T14:34:54.078Z,5.90
2023-04-02T14:37:23.670Z,5.80
2023-04-02T14:40:09.047Z,5.70
2023-04-02T14:42:53.429Z,5.80
2023-04-02T14:45:30.985Z,5.70
2023-04-02T14:48:03.803Z,5.70
2023-04-02T14:50:38.059Z,5.70
2023-04-02T14:53:39.444Z,5.70
2023-04-02T14:56:08.246Z,5.70
2023-04-02T14:58:37.851Z,5.60
2023-04-02T15:01:22.261Z,5.60
2023-04-02T15:03:56.289Z,5.60
2023-04-02T15:06:48.264Z,5.70
2023-04-02T15:09:27.265Z,5.80
2023-04-02T15:12:00.195Z,5.60
2023-04-02T15:14:28.323Z,5.40
2023-04-02T15:16:55.667Z,5.40
2023-04-02T15:19:22.777Z,5.40
2023-04-02T15:22:10.409Z,5.50
2023-04-02T15:24:56.053Z,5.20
2023-04-02T15:27:47.871Z,5.20
2023-04-02T15:30:24.548Z,5.10
2023-04-02T15:32:52.601Z,5.10
2023-04-02T15:36:01.287Z,4.90
2023-04-02T15:38:34.419Z,4.80
2023-04-02T15:41:04.168Z,4.80
2023-04-02T15:43:37.344Z,4.70
2023-04-02T15:46:19.601Z,4.70
2023-04-02T15:49:12.593Z,4.60
2023-04-02T15:52:05.710Z,4.50
2023-04-02T15:54:43.143Z,4.50
2023-04-02T15:57:25.288Z,4.70
2023-04-02T16:00:15.506Z,4.60
2023-04-02T16:03:08.832Z,4.60
2023-04-02T16:05:40.185Z,4.70
2023-04-02T16:08:17.324Z,4.60
2023-04-02T16:10:45.718Z,4.50
2023-04-02T16:13:37.170Z,4.50
2023-04-02T16:16:12.465Z,4.50
2023-04-02T16:19:16.792Z,4.50
2023-04-02T16:22:03.436Z,4.50
2023-04-02T16:24:30.782Z,4.40
2023-04-02T16:27:28.792Z,4.30
2023-04-02T16:30:06.302Z,4.20
2023-04-02T16:32:52.219Z,4.10
2023-04-02T16:35:48.536Z,4.10
2023-04-02T16:38:30.718Z,4.00
2023-04-02T16:41:14.127Z,3.90
2023-04-02T16:43:55.479Z,3.90
2023-04-02T16:46:38.231Z,3.70
2023-04-02T16:49:25.759Z,3.80
2023-04-02T16:51:56.978Z,3.80
2023-04-02T16:54:59.761Z,3.80
2023-04-02T16:58:02.833Z,3.80
2023-04-02T17:00:51.774Z,3.90
2023-04-02T17:03:41.147Z,3.70
2023-04-02T17:06:42.756Z,3.70
2023-04-02T17:09:16.771Z,3.80
2023-04-02T17:11:53.034Z,3.80
2023-04-02T17:14:38.517Z,3.80
2023-04-02T17:17:06.070Z,3.80
2023-04-02T17:19:33.447Z,3.70
2023-04-02T17:22:05.203Z,3.70
2023-04-02T17:24:46.266Z,3.60
2023-04-02T17:27:34.418Z,3.70
2023-04-02T17:30:33.650Z,3.70
2023-04-02T17:33:01.044Z,3.80
2023-04-02T17:35:48.684Z,3.80
2023-04-02T17:38:52.527Z,3.70
2023-04-02T17:41:39.494Z,3.70
2023-04-02T17:44:43.473Z,3.80
2023-04-02T17:47:29.023Z,3.90
2023-04-02T17:50:11.152Z,3.80
2023-04-02T17:52:56.227Z,3.80
2023-04-02T17:55:31.364Z,3.90
2023-04-02T17:58:05.387Z,3.90
2023-04-02T18:00:38.794Z,3.80
2023-04-02T18:03:43.669Z,3.80
2023-04-02T18:06:19.066Z,3.90
2023-04-02T18:08:55.748Z,3.80
2023-04-02T18:11:44.191Z,3.90
2023-04-02T18:15:01.497Z,3.80
2023-04-02T18:17:47.279Z,3.80
2023-04-02T18:20:22.732Z,3.60
2023-04-02T18:23:02.016Z,3.60
2023-04-02T18:25:31.989Z,3.60
2023-04-02T18:27:59.101Z,3.50
2023-04-02T18:30:30.155Z,3.60
2023-04-02T18:33:09.092Z,3.60
2023-04-02T18:36:02.788Z,3.70
2023-04-02T18:38:38.151Z,3.70
2023-04-02T18:41:18.353Z,3.70
2023-04-02T18:44:00.749Z,3.70
2023-04-02T18:46:51.460Z,3.70
2023-04-02T18:49:31.097Z,3.60
2023-04-02T18:52:03.081Z,3.50
2023-04-02T18:54:33.248Z,3.40
2023-04-02T18:57:01.851Z,3.40
2023-04-02T18:59:54.284Z,3.50
2023-04-02T19:02:35.353Z,3.60
2023-04-02T19:05:05.856Z,3.70
2023-04-02T19:07:35.653Z,3.80
2023-04-02T19:10:32.775Z,3.80
2023-04-02T19:12:59.940Z,3.80
2023-04-02T19:15:35.047Z,3.80
2023-04-02T19:18:33.592Z,3.80
2023-04-02T19:21:24.544Z,3.80
2023-04-02T19:24:16.818Z,3.80
2023-04-02T19:26:57.344Z,3.80
2023-04-02T19:29:50.793Z,3.80
2023-04-02T19:32:26.799Z,3.80
2023-04-02T19:35:31.464Z,3.80
2023-04-02T19:38:31.206Z,3.70
2023-04-02T19:41:29.187Z,3.80
2023-04-02T19:43:56.435Z,3.80
2023-04-02T19:46:24.559Z,3.70
2023-04-02T19:49:11.219Z,3.70
2023-04-02T19:51:38.401Z,3.70
2023-04-02T19:54:05.681Z,3.60
2023-04-02T19:56:32.984Z,3.70
2023-04-02T19:59:02.393Z,3.70
2023-04-02T20:01:35.475Z,3.70
2023-04-02T20:04:03.845Z,3.60
2023-04-02T20:06:31.773Z,3.60
2023-04-02T20:08:59.314Z,3.70
2023-04-02T20:11:26.821Z,3.60
2023-04-02T20:13:54.364Z,3.60
2023-04-02T20:16:22.171Z,3.70
2023-04-02T20:18:49.668Z,3.70
2023-04-02T20:21:16.829Z,3.80
2023-04-02T20:23:43.969Z,3.80
2023-04-02T20:26:11.841Z,3.90
2023-04-02T20:28:39.141Z,3.80
2023-04-02T20:31:16.829Z,3.90
2023-04-02T20:33:44.804Z,4.10
2023-04-02T20:36:14.235Z,4.00
2023-04-02T20:38:41.807Z,3.70
2023-04-02T20:41:09.354Z,3.70
2023-04-02T20:43:37.612Z,3.70
2023-04-02T20:46:05.802Z,3.60
2023-04-02T20:48:33.521Z,3.70
2023-04-02T20:51:02.164Z,3.70
2023-04-02T20:53:30.212Z,3.60
2023-04-02T20:56:07.560Z,3.40
2023-04-02T20:58:35.651Z,3.50
2023-04-02T21:01:25.444Z,3.40
2023-04-02T21:03:57.024Z,3.40
2023-04-02T21:06:25.050Z,3.40
2023-04-02T21:08:52.213Z,3.20
2023-04-02T21:11:19.631Z,3.30
2023-04-02T21:13:46.898Z,3.30
2023-04-02T21:16:22.013Z,3.40
2023-04-02T21:18:50.695Z,3.50
2023-04-02T21:21:18.103Z,3.50
2023-04-02T21:23:45.622Z,3.40
2023-04-02T21:26:16.814Z,3.30
2023-04-02T21:28:44.449Z,3.30
2023-04-02T21:31:16.468Z,3.30
2023-04-02T21:33:46.363Z,3.30
2023-04-02T21:36:21.032Z,3.10
2023-04-02T21:38:50.078Z,3.10
2023-04-02T21:41:18.545Z,3.20
2023-04-02T21:43:50.661Z,3.10
2023-04-02T21:46:20.473Z,3.20
2023-04-02T21:48:48.523Z,3.20
2023-04-02T21:51:19.916Z,3.20
2023-04-02T21:53:47.442Z,3.20
2023-04-02T21:56:15.610Z,3.30
2023-04-02T21:58:43.656Z,3.30
2023-04-02T22:01:17.158Z,3.30
2023-04-02T22:03:51.536Z,3.30
2023-04-02T22:06:20.106Z,3.40
2023-04-02T22:08:48.275Z,3.40
2023-04-02T22:11:17.955Z,3.30
2023-04-02T22:13:45.725Z,3.20
2023-04-02T22:16:18.354Z,3.40
2023-04-02T22:18:45.630Z,3.30
2023-04-02T22:21:12.969Z,3.20
2023-04-02T22:23:40.462Z,3.10
2023-04-02T22:26:08.028Z,3.00
2023-04-02T22:28:36.193Z,3.10
2023-04-02T22:31:14.671Z,3.30
2023-04-02T22:33:42.045Z,3.20
2023-04-02T22:36:09.346Z,3.10
2023-04-02T22:38:36.788Z,3.10
2023-04-02T22:41:12.041Z,3.20
2023-04-02T22:43:39.717Z,3.10
2023-04-02T22:46:07.999Z,3.10
2023-04-02T22:48:35.313Z,3.20
2023-04-02T22:51:02.920Z,3.10
2023-04-02T22:53:30.565Z,3.10
2023-04-02T22:56:07.309Z,3.30
2023-04-02T22:58:34.997Z,3.40
2023-04-02T23:01:13.530Z,3.30
2023-04-02T23:03:40.805Z,3.40
2023-04-02T23:06:09.554Z,3.40
2023-04-02T23:08:37.043Z,3.40
2023-04-02T23:11:13.942Z,3.40
2023-04-02T23:13:41.202Z,3.50
2023-04-02T23:16:10.326Z,3.60
2023-04-02T23:18:37.727Z,3.50
2023-04-02T23:21:05.240Z,3.60
2023-04-02T23:23:32.534Z,3.60
2023-04-02T23:26:13.491Z,3.60
2023-04-02T23:28:40.758Z,3.60
2023-04-02T23:31:09.466Z,3.60
2023-04-02T23:33:36.710Z,3.60
2023-04-02T23:36:24.447Z,3.60
2023-04-02T23:38:55.502Z,3.50
2023-04-02T23:41:23.911Z,3.60
2023-04-02T23:43:51.324Z,3.60
2023-04-02T23:46:18.677Z,3.50
2023-04-02T23:48:46.851Z,3.50
2023-04-02T23:51:14.186Z,3.60
2023-04-02T23:53:41.554Z,3.60
2023-04-02T23:56:08.845Z,3.70
2023-04-02T23:58:36.344Z,3.60
